sensor_id;sensor_type;location;lat;lon;timestamp;pressure;altitude;pressure_sealevel;temperature;humidity
9129;BME280;4599;50.906;6.786;2024-01-07T00:01:32;100211.91;;;1.63;96.01
9129;BME280;4599;50.906;6.786;2024-01-07T00:05:35;100185.50;;;1.48;95.76
9129;BME280;4599;50.906;6.786;2024-01-07T00:09:37;100206.03;;;1.62;96.15
9129;BME280;4599;50.906;6.786;2024-01-07T00:13:39;100214.13;;;1.70;95.54
9129;BME280;4599;50.906;6.786;2024-01-07T00:17:41;100212.53;;;1.68;95.87
9129;BME280;4599;50.906;6.786;2024-01-07T00:21:43;100227.06;;;1.63;95.60
9129;BME280;4599;50.906;6.786;2024-01-07T00:25:46;100220.19;;;1.66;95.55
9129;BME280;4599;50.906;6.786;2024-01-07T00:29:47;100228.69;;;1.64;96.03
9129;BME280;4599;50.906;6.786;2024-01-07T00:33:50;100222.00;;;1.63;95.77
9129;BME280;4599;50.906;6.786;2024-01-07T00:37:52;100224.69;;;1.58;95.90
9129;BME280;4599;50.906;6.786;2024-01-07T00:41:54;100222.81;;;1.63;95.64
9129;BME280;4599;50.906;6.786;2024-01-07T00:45:55;100226.38;;;1.58;96.04
9129;BME280;4599;50.906;6.786;2024-01-07T00:49:58;100224.63;;;1.60;95.49
9129;BME280;4599;50.906;6.786;2024-01-07T00:54:00;100228.03;;;1.59;95.32
9129;BME280;4599;50.906;6.786;2024-01-07T00:58:02;100233.09;;;1.59;96.01
9129;BME280;4599;50.906;6.786;2024-01-07T01:02:03;100234.94;;;1.54;95.95
9129;BME280;4599;50.906;6.786;2024-01-07T01:06:06;100237.19;;;1.61;95.43
9129;BME280;4599;50.906;6.786;2024-01-07T01:10:09;100244.03;;;1.59;95.79
9129;BME280;4599;50.906;6.786;2024-01-07T01:14:11;100245.72;;;1.59;95.43
9129;BME280;4599;50.906;6.786;2024-01-07T01:18:12;100246.91;;;1.72;95.73
9129;BME280;4599;50.906;6.786;2024-01-07T01:22:15;100249.00;;;1.61;95.88
9129;BME280;4599;50.906;6.786;2024-01-07T01:26:17;100254.66;;;1.67;95.71
9129;BME280;4599;50.906;6.786;2024-01-07T01:30:18;100259.88;;;1.63;95.29
9129;BME280;4599;50.906;6.786;2024-01-07T01:34:20;100267.22;;;1.69;95.33
9129;BME280;4599;50.906;6.786;2024-01-07T01:38:23;100267.47;;;1.84;94.37
9129;BME280;4599;50.906;6.786;2024-01-07T01:42:25;100269.63;;;1.72;94.81
9129;BME280;4599;50.906;6.786;2024-01-07T01:46:28;100263.91;;;1.67;95.62
9129;BME280;4599;50.906;6.786;2024-01-07T01:50:30;100263.53;;;1.77;94.71
9129;BME280;4599;50.906;6.786;2024-01-07T01:54:33;100280.81;;;1.66;95.00
9129;BME280;4599;50.906;6.786;2024-01-07T01:58:36;100273.81;;;1.73;95.32
9129;BME280;4599;50.906;6.786;2024-01-07T02:02:38;100272.16;;;1.72;95.30
9129;BME280;4599;50.906;6.786;2024-01-07T02:06:39;100275.41;;;1.75;95.14
9129;BME280;4599;50.906;6.786;2024-01-07T02:10:42;100278.88;;;1.73;95.49
9129;BME280;4599;50.906;6.786;2024-01-07T02:14:44;100279.63;;;1.75;95.23
9129;BME280;4599;50.906;6.786;2024-01-07T02:18:46;100291.56;;;1.71;94.79
9129;BME280;4599;50.906;6.786;2024-01-07T02:22:47;100291.28;;;1.79;94.38
9129;BME280;4599;50.906;6.786;2024-01-07T02:26:50;100296.16;;;1.83;94.50
9129;BME280;4599;50.906;6.786;2024-01-07T02:30:52;100294.66;;;1.78;95.19
9129;BME280;4599;50.906;6.786;2024-01-07T02:34:54;100291.50;;;1.73;94.45
9129;BME280;4599;50.906;6.786;2024-01-07T02:38:55;100311.44;;;1.80;94.85
9129;BME280;4599;50.906;6.786;2024-01-07T02:42:58;100307.16;;;1.82;94.61
9129;BME280;4599;50.906;6.786;2024-01-07T02:47:00;100310.34;;;1.87;94.70
9129;BME280;4599;50.906;6.786;2024-01-07T02:51:01;100311.06;;;1.91;94.29
9129;BME280;4599;50.906;6.786;2024-01-07T02:55:03;100315.53;;;1.83;95.14
9129;BME280;4599;50.906;6.786;2024-01-07T02:59:06;100318.91;;;1.83;94.31
9129;BME280;4599;50.906;6.786;2024-01-07T03:03:08;100323.88;;;1.85;93.87
9129;BME280;4599;50.906;6.786;2024-01-07T03:07:10;100321.34;;;1.85;94.14
9129;BME280;4599;50.906;6.786;2024-01-07T03:11:11;100328.56;;;1.72;94.69
9129;BME280;4599;50.906;6.786;2024-01-07T03:15:14;100330.81;;;1.80;93.89
9129;BME280;4599;50.906;6.786;2024-01-07T03:19:16;100321.03;;;1.94;93.35
9129;BME280;4599;50.906;6.786;2024-01-07T03:23:17;100333.47;;;1.77;94.03
9129;BME280;4599;50.906;6.786;2024-01-07T03:27:19;100336.72;;;1.80;93.66
9129;BME280;4599;50.906;6.786;2024-01-07T03:31:22;100331.66;;;1.80;94.16
9129;BME280;4599;50.906;6.786;2024-01-07T03:35:24;100330.63;;;1.84;93.50
9129;BME280;4599;50.906;6.786;2024-01-07T03:39:25;100328.72;;;1.68;94.68
9129;BME280;4599;50.906;6.786;2024-01-07T03:43:27;100333.78;;;1.68;94.54
9129;BME280;4599;50.906;6.786;2024-01-07T03:47:31;100334.00;;;1.62;94.73
9129;BME280;4599;50.906;6.786;2024-01-07T03:51:32;100331.97;;;1.71;94.43
9129;BME280;4599;50.906;6.786;2024-01-07T03:55:34;100338.91;;;1.66;94.87
9129;BME280;4599;50.906;6.786;2024-01-07T03:59:36;100337.72;;;1.75;93.81
9129;BME280;4599;50.906;6.786;2024-01-07T04:03:39;100334.75;;;1.64;94.93
9129;BME280;4599;50.906;6.786;2024-01-07T04:07:40;100340.41;;;1.70;94.68
9129;BME280;4599;50.906;6.786;2024-01-07T04:11:42;100343.94;;;1.66;94.61
9129;BME280;4599;50.906;6.786;2024-01-07T04:15:44;100340.00;;;1.59;94.32
9129;BME280;4599;50.906;6.786;2024-01-07T04:19:47;100349.91;;;1.64;94.77
9129;BME280;4599;50.906;6.786;2024-01-07T04:23:48;100357.75;;;1.56;95.14
9129;BME280;4599;50.906;6.786;2024-01-07T04:27:50;100359.97;;;1.65;95.02
9129;BME280;4599;50.906;6.786;2024-01-07T04:31:51;100364.31;;;1.62;95.10
9129;BME280;4599;50.906;6.786;2024-01-07T04:35:54;100365.50;;;1.52;95.66
9129;BME280;4599;50.906;6.786;2024-01-07T04:39:56;100366.25;;;1.54;95.46
9129;BME280;4599;50.906;6.786;2024-01-07T04:43:57;100366.47;;;1.47;94.94
9129;BME280;4599;50.906;6.786;2024-01-07T04:47:59;100372.38;;;1.71;94.41
9129;BME280;4599;50.906;6.786;2024-01-07T04:52:02;100380.47;;;1.56;94.44
9129;BME280;4599;50.906;6.786;2024-01-07T04:56:05;100381.38;;;1.55;94.67
9129;BME280;4599;50.906;6.786;2024-01-07T05:00:07;100384.44;;;1.38;95.34
9129;BME280;4599;50.906;6.786;2024-01-07T05:04:09;100383.78;;;1.58;93.25
9129;BME280;4599;50.906;6.786;2024-01-07T05:08:13;100391.72;;;1.47;92.97
9129;BME280;4599;50.906;6.786;2024-01-07T05:12:14;100397.00;;;1.41;93.57
9129;BME280;4599;50.906;6.786;2024-01-07T05:16:19;100393.28;;;1.52;92.81
9129;BME280;4599;50.906;6.786;2024-01-07T05:20:20;100404.34;;;1.47;93.75
9129;BME280;4599;50.906;6.786;2024-01-07T05:24:24;100418.00;;;1.42;94.25
9129;BME280;4599;50.906;6.786;2024-01-07T05:28:25;100413.31;;;1.56;93.76
9129;BME280;4599;50.906;6.786;2024-01-07T05:32:27;100417.91;;;1.45;94.04
9129;BME280;4599;50.906;6.786;2024-01-07T05:36:29;100423.50;;;1.53;94.14
9129;BME280;4599;50.906;6.786;2024-01-07T05:40:32;100429.91;;;1.63;93.86
9129;BME280;4599;50.906;6.786;2024-01-07T05:44:33;100433.34;;;1.36;94.54
9129;BME280;4599;50.906;6.786;2024-01-07T05:48:41;100436.66;;;1.38;94.15
9129;BME280;4599;50.906;6.786;2024-01-07T05:52:42;100437.06;;;1.26;94.27
9129;BME280;4599;50.906;6.786;2024-01-07T05:56:45;100442.53;;;1.38;94.53
9129;BME280;4599;50.906;6.786;2024-01-07T06:00:47;100442.81;;;1.29;94.18
9129;BME280;4599;50.906;6.786;2024-01-07T06:04:48;100447.91;;;1.28;94.52
9129;BME280;4599;50.906;6.786;2024-01-07T06:08:50;100456.22;;;1.31;94.98
9129;BME280;4599;50.906;6.786;2024-01-07T06:12:53;100457.84;;;1.34;93.96
9129;BME280;4599;50.906;6.786;2024-01-07T06:16:54;100450.19;;;1.35;94.60
9129;BME280;4599;50.906;6.786;2024-01-07T06:20:56;100453.44;;;1.39;92.55
9129;BME280;4599;50.906;6.786;2024-01-07T06:24:58;100465.91;;;1.17;93.83
9129;BME280;4599;50.906;6.786;2024-01-07T06:29:01;100470.63;;;1.28;93.40
9129;BME280;4599;50.906;6.786;2024-01-07T06:33:03;100483.00;;;1.35;93.57
9129;BME280;4599;50.906;6.786;2024-01-07T06:37:05;100491.72;;;1.27;93.99
9129;BME280;4599;50.906;6.786;2024-01-07T06:41:06;100497.94;;;1.17;93.07
9129;BME280;4599;50.906;6.786;2024-01-07T06:45:11;100502.91;;;1.18;92.95
9129;BME280;4599;50.906;6.786;2024-01-07T06:49:12;100508.69;;;1.22;92.56
9129;BME280;4599;50.906;6.786;2024-01-07T06:53:14;100516.69;;;1.08;92.87
9129;BME280;4599;50.906;6.786;2024-01-07T06:57:15;100525.59;;;1.20;92.63
9129;BME280;4599;50.906;6.786;2024-01-07T07:01:22;100528.38;;;1.11;92.72
9129;BME280;4599;50.906;6.786;2024-01-07T07:05:24;100544.47;;;1.07;91.75
9129;BME280;4599;50.906;6.786;2024-01-07T07:09:25;100535.44;;;0.99;91.57
9129;BME280;4599;50.906;6.786;2024-01-07T07:13:27;100535.63;;;0.93;92.96
9129;BME280;4599;50.906;6.786;2024-01-07T07:17:30;100548.94;;;0.98;92.61
9129;BME280;4599;50.906;6.786;2024-01-07T07:21:33;100552.16;;;1.04;92.31
9129;BME280;4599;50.906;6.786;2024-01-07T07:25:35;100561.59;;;0.97;92.50
9129;BME280;4599;50.906;6.786;2024-01-07T07:29:37;100564.09;;;0.98;92.10
9129;BME280;4599;50.906;6.786;2024-01-07T07:33:40;100564.25;;;0.92;93.04
9129;BME280;4599;50.906;6.786;2024-01-07T07:37:42;100576.91;;;0.91;92.89
9129;BME280;4599;50.906;6.786;2024-01-07T07:41:43;100577.91;;;0.85;92.76
9129;BME280;4599;50.906;6.786;2024-01-07T07:45:45;100593.56;;;0.96;93.31
9129;BME280;4599;50.906;6.786;2024-01-07T07:49:48;100595.13;;;1.00;92.25
9129;BME280;4599;50.906;6.786;2024-01-07T07:53:49;100600.56;;;0.87;92.32
9129;BME280;4599;50.906;6.786;2024-01-07T07:57:51;100594.69;;;0.86;92.77
9129;BME280;4599;50.906;6.786;2024-01-07T08:01:53;100608.16;;;0.87;92.95
9129;BME280;4599;50.906;6.786;2024-01-07T08:05:56;100603.53;;;1.01;91.46
9129;BME280;4599;50.906;6.786;2024-01-07T08:09:58;100617.00;;;1.00;91.95
9129;BME280;4599;50.906;6.786;2024-01-07T08:14:00;100620.03;;;0.82;92.24
9129;BME280;4599;50.906;6.786;2024-01-07T08:18:01;100625.69;;;0.91;92.14
9129;BME280;4599;50.906;6.786;2024-01-07T08:22:04;100632.38;;;0.92;91.95
9129;BME280;4599;50.906;6.786;2024-01-07T08:26:06;100637.47;;;0.91;92.75
9129;BME280;4599;50.906;6.786;2024-01-07T08:30:08;100639.06;;;0.93;91.94
9129;BME280;4599;50.906;6.786;2024-01-07T08:34:10;100660.91;;;0.94;91.67
9129;BME280;4599;50.906;6.786;2024-01-07T08:38:13;100656.81;;;0.90;92.36
9129;BME280;4599;50.906;6.786;2024-01-07T08:42:15;100662.63;;;0.94;91.90
9129;BME280;4599;50.906;6.786;2024-01-07T08:46:16;100670.94;;;0.97;91.70
9129;BME280;4599;50.906;6.786;2024-01-07T08:50:18;100682.81;;;0.92;92.52
9129;BME280;4599;50.906;6.786;2024-01-07T08:54:21;100683.63;;;0.94;93.26
9129;BME280;4599;50.906;6.786;2024-01-07T08:58:22;100693.75;;;0.93;92.21
9129;BME280;4599;50.906;6.786;2024-01-07T09:02:24;100695.31;;;0.98;92.02
9129;BME280;4599;50.906;6.786;2024-01-07T09:06:26;100695.59;;;0.86;92.77
9129;BME280;4599;50.906;6.786;2024-01-07T09:10:28;100699.72;;;0.90;92.77
9129;BME280;4599;50.906;6.786;2024-01-07T09:14:30;100706.22;;;0.99;91.58
9129;BME280;4599;50.906;6.786;2024-01-07T09:18:32;100699.00;;;0.85;92.36
9129;BME280;4599;50.906;6.786;2024-01-07T09:22:33;100705.63;;;0.89;92.18
9129;BME280;4599;50.906;6.786;2024-01-07T09:26:36;100709.81;;;0.90;92.57
9129;BME280;4599;50.906;6.786;2024-01-07T09:30:38;100709.09;;;0.85;92.44
9129;BME280;4599;50.906;6.786;2024-01-07T09:34:40;100715.38;;;0.71;91.66
9129;BME280;4599;50.906;6.786;2024-01-07T09:38:42;100726.72;;;0.87;92.00
9129;BME280;4599;50.906;6.786;2024-01-07T09:42:45;100730.16;;;0.84;91.53
9129;BME280;4599;50.906;6.786;2024-01-07T09:46:48;100706.78;;;0.78;91.26
9129;BME280;4599;50.906;6.786;2024-01-07T09:50:51;100732.03;;;0.76;92.27
9129;BME280;4599;50.906;6.786;2024-01-07T09:54:58;100733.72;;;0.76;91.00
9129;BME280;4599;50.906;6.786;2024-01-07T09:59:01;100733.63;;;0.80;91.31
9129;BME280;4599;50.906;6.786;2024-01-07T10:03:03;100738.56;;;0.85;92.08
9129;BME280;4599;50.906;6.786;2024-01-07T10:07:06;100733.91;;;1.00;91.17
9129;BME280;4599;50.906;6.786;2024-01-07T10:11:08;100748.94;;;1.05;90.58
9129;BME280;4599;50.906;6.786;2024-01-07T10:15:11;100759.22;;;0.99;91.49
9129;BME280;4599;50.906;6.786;2024-01-07T10:19:19;100753.06;;;0.75;92.05
9129;BME280;4599;50.906;6.786;2024-01-07T10:23:21;100759.63;;;0.82;91.65
9129;BME280;4599;50.906;6.786;2024-01-07T10:27:22;100763.25;;;1.05;90.64
9129;BME280;4599;50.906;6.786;2024-01-07T10:31:25;100760.34;;;0.87;92.01
9129;BME280;4599;50.906;6.786;2024-01-07T10:35:30;100759.41;;;0.91;91.34
9129;BME280;4599;50.906;6.786;2024-01-07T10:39:33;100774.16;;;0.73;92.38
9129;BME280;4599;50.906;6.786;2024-01-07T10:43:38;100768.69;;;0.89;90.79
9129;BME280;4599;50.906;6.786;2024-01-07T10:47:46;100776.41;;;0.83;91.37
9129;BME280;4599;50.906;6.786;2024-01-07T10:51:59;100770.88;;;0.71;91.22
9129;BME280;4599;50.906;6.786;2024-01-07T10:56:04;100779.53;;;0.59;91.74
9129;BME280;4599;50.906;6.786;2024-01-07T11:00:07;100777.41;;;0.78;92.17
9129;BME280;4599;50.906;6.786;2024-01-07T11:04:14;100778.53;;;0.66;90.93
9129;BME280;4599;50.906;6.786;2024-01-07T11:08:22;100778.53;;;0.66;90.77
9129;BME280;4599;50.906;6.786;2024-01-07T11:12:27;100785.91;;;0.74;90.64
9129;BME280;4599;50.906;6.786;2024-01-07T11:16:42;100787.53;;;0.76;90.77
9129;BME280;4599;50.906;6.786;2024-01-07T11:20:45;100792.84;;;0.64;91.03
9129;BME280;4599;50.906;6.786;2024-01-07T11:24:47;100791.84;;;0.71;90.01
9129;BME280;4599;50.906;6.786;2024-01-07T11:28:50;100793.66;;;0.66;89.43
9129;BME280;4599;50.906;6.786;2024-01-07T11:32:59;100792.00;;;0.65;89.28
9129;BME280;4599;50.906;6.786;2024-01-07T11:37:04;100788.38;;;0.75;89.46
9129;BME280;4599;50.906;6.786;2024-01-07T11:41:11;100797.59;;;0.78;89.69
9129;BME280;4599;50.906;6.786;2024-01-07T11:45:12;100803.41;;;0.81;88.78
9129;BME280;4599;50.906;6.786;2024-01-07T11:49:14;100805.91;;;0.81;88.35
9129;BME280;4599;50.906;6.786;2024-01-07T11:53:18;100800.38;;;0.99;87.91
9129;BME280;4599;50.906;6.786;2024-01-07T11:57:19;100809.88;;;0.90;88.39
9129;BME280;4599;50.906;6.786;2024-01-07T12:01:21;100806.66;;;0.85;87.69
9129;BME280;4599;50.906;6.786;2024-01-07T12:05:22;100805.84;;;0.84;87.59
9129;BME280;4599;50.906;6.786;2024-01-07T12:09:26;100806.44;;;0.59;87.22
9129;BME280;4599;50.906;6.786;2024-01-07T12:13:27;100812.34;;;0.59;87.33
9129;BME280;4599;50.906;6.786;2024-01-07T12:17:29;100794.94;;;0.48;87.31
9129;BME280;4599;50.906;6.786;2024-01-07T12:21:31;100814.13;;;0.54;87.56
9129;BME280;4599;50.906;6.786;2024-01-07T12:25:34;100814.00;;;0.60;86.68
9129;BME280;4599;50.906;6.786;2024-01-07T12:29:36;100821.00;;;0.47;86.67
9129;BME280;4599;50.906;6.786;2024-01-07T12:33:37;100825.09;;;0.53;87.28
9129;BME280;4599;50.906;6.786;2024-01-07T12:37:42;100824.34;;;0.49;86.29
9129;BME280;4599;50.906;6.786;2024-01-07T12:41:45;100826.91;;;0.46;86.52
9129;BME280;4599;50.906;6.786;2024-01-07T12:45:47;100829.16;;;0.59;85.69
9129;BME280;4599;50.906;6.786;2024-01-07T12:49:49;100835.13;;;0.55;87.05
9129;BME280;4599;50.906;6.786;2024-01-07T12:53:51;100831.00;;;0.50;86.61
9129;BME280;4599;50.906;6.786;2024-01-07T12:57:54;100827.88;;;0.41;86.70
9129;BME280;4599;50.906;6.786;2024-01-07T13:01:56;100838.66;;;0.47;86.25
9129;BME280;4599;50.906;6.786;2024-01-07T13:05:57;100849.88;;;0.34;86.38
9129;BME280;4599;50.906;6.786;2024-01-07T13:09:59;100858.16;;;0.39;86.78
9129;BME280;4599;50.906;6.786;2024-01-07T13:14:02;100861.16;;;0.55;86.12
9129;BME280;4599;50.906;6.786;2024-01-07T13:18:04;100860.63;;;0.42;85.41
9129;BME280;4599;50.906;6.786;2024-01-07T13:22:06;100867.34;;;0.42;85.64
9129;BME280;4599;50.906;6.786;2024-01-07T13:26:08;100867.22;;;0.48;84.35
9129;BME280;4599;50.906;6.786;2024-01-07T13:30:11;100866.47;;;0.43;84.03
9129;BME280;4599;50.906;6.786;2024-01-07T13:34:13;100874.50;;;0.22;82.59
9129;BME280;4599;50.906;6.786;2024-01-07T13:38:14;100876.06;;;0.27;84.31
9129;BME280;4599;50.906;6.786;2024-01-07T13:42:16;100881.03;;;0.30;84.67
9129;BME280;4599;50.906;6.786;2024-01-07T13:46:19;100885.00;;;0.42;82.17
9129;BME280;4599;50.906;6.786;2024-01-07T13:50:20;100886.28;;;0.21;81.96
9129;BME280;4599;50.906;6.786;2024-01-07T13:54:22;100893.94;;;0.17;83.17
9129;BME280;4599;50.906;6.786;2024-01-07T13:58:24;100902.97;;;0.27;82.47
9129;BME280;4599;50.906;6.786;2024-01-07T14:02:27;100911.72;;;0.11;82.52
9129;BME280;4599;50.906;6.786;2024-01-07T14:06:28;100914.13;;;0.15;81.59
9129;BME280;4599;50.906;6.786;2024-01-07T14:10:30;100926.16;;;0.01;81.09
9129;BME280;4599;50.906;6.786;2024-01-07T14:14:32;100931.44;;;-0.11;80.69
9129;BME280;4599;50.906;6.786;2024-01-07T14:18:35;100950.81;;;-0.15;80.65
9129;BME280;4599;50.906;6.786;2024-01-07T14:22:36;100935.75;;;-0.18;81.01
9129;BME280;4599;50.906;6.786;2024-01-07T14:26:38;100958.59;;;-0.27;80.45
9129;BME280;4599;50.906;6.786;2024-01-07T14:30:40;100974.59;;;-0.31;82.34
9129;BME280;4599;50.906;6.786;2024-01-07T14:34:43;100972.31;;;-0.43;81.43
9129;BME280;4599;50.906;6.786;2024-01-07T14:38:45;100973.13;;;-0.42;80.42
9129;BME280;4599;50.906;6.786;2024-01-07T14:42:46;100984.13;;;-0.48;80.69
9129;BME280;4599;50.906;6.786;2024-01-07T14:46:48;100981.53;;;-0.43;80.72
9129;BME280;4599;50.906;6.786;2024-01-07T14:50:51;100991.69;;;-0.48;80.59
9129;BME280;4599;50.906;6.786;2024-01-07T14:54:52;100991.56;;;-0.42;78.80
9129;BME280;4599;50.906;6.786;2024-01-07T14:58:54;101006.19;;;-0.64;78.89
9129;BME280;4599;50.906;6.786;2024-01-07T15:02:57;101018.88;;;-0.70;77.37
9129;BME280;4599;50.906;6.786;2024-01-07T15:07:00;101033.06;;;-0.67;76.42
9129;BME280;4599;50.906;6.786;2024-01-07T15:11:01;101036.38;;;-0.61;76.39
9129;BME280;4599;50.906;6.786;2024-01-07T15:15:03;101039.88;;;-0.72;76.70
9129;BME280;4599;50.906;6.786;2024-01-07T15:19:05;101048.19;;;-0.67;77.57
9129;BME280;4599;50.906;6.786;2024-01-07T15:23:08;101047.38;;;-0.69;77.18
9129;BME280;4599;50.906;6.786;2024-01-07T15:27:10;101059.97;;;-0.71;77.77
9129;BME280;4599;50.906;6.786;2024-01-07T15:31:12;101053.94;;;-0.59;75.68
9129;BME280;4599;50.906;6.786;2024-01-07T15:35:13;101069.22;;;-0.71;74.73
9129;BME280;4599;50.906;6.786;2024-01-07T15:39:16;101071.88;;;-0.80;74.78
9129;BME280;4599;50.906;6.786;2024-01-07T15:43:18;101087.59;;;-0.66;75.51
9129;BME280;4599;50.906;6.786;2024-01-07T15:47:20;101087.59;;;-0.65;75.63
9129;BME280;4599;50.906;6.786;2024-01-07T15:51:21;101090.13;;;-0.66;74.87
9129;BME280;4599;50.906;6.786;2024-01-07T15:55:24;101102.69;;;-0.65;73.28
9129;BME280;4599;50.906;6.786;2024-01-07T15:59:27;101108.72;;;-0.76;73.82
9129;BME280;4599;50.906;6.786;2024-01-07T16:03:29;101112.97;;;-0.81;73.01
9129;BME280;4599;50.906;6.786;2024-01-07T16:07:30;101118.94;;;-0.88;73.81
9129;BME280;4599;50.906;6.786;2024-01-07T16:11:33;101130.63;;;-0.83;73.67
9129;BME280;4599;50.906;6.786;2024-01-07T16:15:35;101129.78;;;-0.85;74.08
9129;BME280;4599;50.906;6.786;2024-01-07T16:19:36;101135.72;;;-0.90;73.60
9129;BME280;4599;50.906;6.786;2024-01-07T16:23:38;101133.19;;;-0.86;74.30
9129;BME280;4599;50.906;6.786;2024-01-07T16:27:41;101141.38;;;-0.72;74.26
9129;BME280;4599;50.906;6.786;2024-01-07T16:31:42;101142.94;;;-0.63;73.43
9129;BME280;4599;50.906;6.786;2024-01-07T16:35:44;101136.41;;;-0.76;73.35
9129;BME280;4599;50.906;6.786;2024-01-07T16:39:45;101147.47;;;-0.91;72.11
9129;BME280;4599;50.906;6.786;2024-01-07T16:43:50;101150.91;;;-0.96;72.26
9129;BME280;4599;50.906;6.786;2024-01-07T16:47:51;101172.75;;;-1.02;73.10
9129;BME280;4599;50.906;6.786;2024-01-07T16:51:53;101159.94;;;-0.79;73.37
9129;BME280;4599;50.906;6.786;2024-01-07T16:55:55;101169.16;;;-0.79;71.73
9129;BME280;4599;50.906;6.786;2024-01-07T16:59:58;101178.38;;;-0.81;71.97
9129;BME280;4599;50.906;6.786;2024-01-07T17:03:59;101181.78;;;-0.82;73.40
9129;BME280;4599;50.906;6.786;2024-01-07T17:08:01;101189.31;;;-0.84;73.40
9129;BME280;4599;50.906;6.786;2024-01-07T17:12:03;101196.78;;;-0.76;71.34
9129;BME280;4599;50.906;6.786;2024-01-07T17:16:07;101195.31;;;-0.92;70.84
9129;BME280;4599;50.906;6.786;2024-01-07T17:20:09;101206.94;;;-0.84;70.88
9129;BME280;4599;50.906;6.786;2024-01-07T17:24:11;101209.50;;;-0.85;70.67
9129;BME280;4599;50.906;6.786;2024-01-07T17:28:12;101205.34;;;-0.91;70.18
9129;BME280;4599;50.906;6.786;2024-01-07T17:32:15;101210.25;;;-0.80;69.17
9129;BME280;4599;50.906;6.786;2024-01-07T17:36:16;101211.22;;;-0.89;68.90
9129;BME280;4599;50.906;6.786;2024-01-07T17:40:18;101214.56;;;-0.90;70.00
9129;BME280;4599;50.906;6.786;2024-01-07T17:44:20;101223.72;;;-0.83;70.50
9129;BME280;4599;50.906;6.786;2024-01-07T17:48:23;101226.97;;;-0.75;69.60
9129;BME280;4599;50.906;6.786;2024-01-07T17:52:24;101236.25;;;-0.78;70.55
9129;BME280;4599;50.906;6.786;2024-01-07T17:56:26;101230.28;;;-0.71;69.57
9129;BME280;4599;50.906;6.786;2024-01-07T18:00:28;101239.50;;;-0.70;69.18
9129;BME280;4599;50.906;6.786;2024-01-07T18:04:32;101238.78;;;-0.80;70.91
9129;BME280;4599;50.906;6.786;2024-01-07T18:08:35;101239.56;;;-0.75;71.23
9129;BME280;4599;50.906;6.786;2024-01-07T18:12:47;101243.63;;;-0.65;69.46
9129;BME280;4599;50.906;6.786;2024-01-07T18:16:51;101242.88;;;-0.71;69.50
9129;BME280;4599;50.906;6.786;2024-01-07T18:20:54;101241.22;;;-0.72;69.12
9129;BME280;4599;50.906;6.786;2024-01-07T18:24:56;101239.50;;;-0.69;67.87
9129;BME280;4599;50.906;6.786;2024-01-07T18:28:57;101233.66;;;-0.74;68.10
9129;BME280;4599;50.906;6.786;2024-01-07T18:33:00;101245.44;;;-0.76;69.29
9129;BME280;4599;50.906;6.786;2024-01-07T18:37:03;101252.97;;;-0.74;68.53
9129;BME280;4599;50.906;6.786;2024-01-07T18:41:04;101262.09;;;-0.64;67.70
9129;BME280;4599;50.906;6.786;2024-01-07T18:45:07;101263.78;;;-0.66;67.38
9129;BME280;4599;50.906;6.786;2024-01-07T18:49:08;101264.69;;;-0.73;68.62
9129;BME280;4599;50.906;6.786;2024-01-07T18:53:11;101270.41;;;-0.58;67.54
9129;BME280;4599;50.906;6.786;2024-01-07T18:57:13;101273.72;;;-0.56;67.44
9129;BME280;4599;50.906;6.786;2024-01-07T19:01:14;101274.59;;;-0.60;66.92
9129;BME280;4599;50.906;6.786;2024-01-07T19:05:16;101275.59;;;-0.74;67.32
9129;BME280;4599;50.906;6.786;2024-01-07T19:09:19;101278.84;;;-0.63;66.90
9129;BME280;4599;50.906;6.786;2024-01-07T19:13:22;101278.91;;;-0.68;67.93
9129;BME280;4599;50.906;6.786;2024-01-07T19:17:24;101285.59;;;-0.65;68.35
9129;BME280;4599;50.906;6.786;2024-01-07T19:21:25;101282.34;;;-0.78;68.85
9129;BME280;4599;50.906;6.786;2024-01-07T19:25:28;101283.13;;;-0.70;67.91
9129;BME280;4599;50.906;6.786;2024-01-07T19:29:30;101287.31;;;-0.70;68.35
9129;BME280;4599;50.906;6.786;2024-01-07T19:33:31;101292.34;;;-0.69;69.21
9129;BME280;4599;50.906;6.786;2024-01-07T19:37:33;101299.06;;;-0.68;67.75
9129;BME280;4599;50.906;6.786;2024-01-07T19:41:36;101294.09;;;-0.75;67.41
9129;BME280;4599;50.906;6.786;2024-01-07T19:45:39;101237.28;;;-0.99;67.02
9129;BME280;4599;50.906;6.786;2024-01-07T19:49:40;101305.09;;;-0.88;69.32
9129;BME280;4599;50.906;6.786;2024-01-07T19:53:42;101306.78;;;-0.87;69.69
9129;BME280;4599;50.906;6.786;2024-01-07T19:57:45;101295.84;;;-0.83;70.21
9129;BME280;4599;50.906;6.786;2024-01-07T20:01:48;101284.25;;;-0.96;70.69
9129;BME280;4599;50.906;6.786;2024-01-07T20:05:49;101310.75;;;-0.65;70.07
9129;BME280;4599;50.906;6.786;2024-01-07T20:09:51;101316.56;;;-0.59;71.04
9129;BME280;4599;50.906;6.786;2024-01-07T20:13:54;101316.63;;;-0.66;68.66
9129;BME280;4599;50.906;6.786;2024-01-07T20:17:56;101317.63;;;-0.81;71.52
9129;BME280;4599;50.906;6.786;2024-01-07T20:21:58;101311.66;;;-0.72;70.96
9129;BME280;4599;50.906;6.786;2024-01-07T20:26:00;101316.78;;;-0.80;72.04
9129;BME280;4599;50.906;6.786;2024-01-07T20:30:06;101305.63;;;-0.56;69.14
9129;BME280;4599;50.906;6.786;2024-01-07T20:34:08;101317.69;;;-0.88;71.38
9129;BME280;4599;50.906;6.786;2024-01-07T20:38:10;101318.50;;;-0.85;71.31
9129;BME280;4599;50.906;6.786;2024-01-07T20:42:11;101327.72;;;-0.84;71.27
9129;BME280;4599;50.906;6.786;2024-01-07T20:46:33;101321.09;;;-0.92;71.77
9129;BME280;4599;50.906;6.786;2024-01-07T20:50:35;101331.94;;;-0.87;72.28
9129;BME280;4599;50.906;6.786;2024-01-07T20:54:38;101316.88;;;-0.90;73.13
9129;BME280;4599;50.906;6.786;2024-01-07T20:58:39;101329.50;;;-0.95;72.17
9129;BME280;4599;50.906;6.786;2024-01-07T21:02:42;101328.75;;;-1.03;71.67
9129;BME280;4599;50.906;6.786;2024-01-07T21:06:44;101329.69;;;-1.18;73.03
9129;BME280;4599;50.906;6.786;2024-01-07T21:10:45;101333.16;;;-1.32;72.05
9129;BME280;4599;50.906;6.786;2024-01-07T21:14:47;101333.22;;;-1.41;72.45
9129;BME280;4599;50.906;6.786;2024-01-07T21:18:50;101343.25;;;-1.37;72.62
9129;BME280;4599;50.906;6.786;2024-01-07T21:22:51;101349.13;;;-1.36;72.81
9129;BME280;4599;50.906;6.786;2024-01-07T21:26:53;101348.44;;;-1.66;74.87
9129;BME280;4599;50.906;6.786;2024-01-07T21:30:55;101354.34;;;-1.67;75.98
9129;BME280;4599;50.906;6.786;2024-01-07T21:34:58;101353.44;;;-1.57;75.46
9129;BME280;4599;50.906;6.786;2024-01-07T21:39:00;101359.28;;;-1.55;75.66
9129;BME280;4599;50.906;6.786;2024-01-07T21:43:01;101357.50;;;-1.37;74.89
9129;BME280;4599;50.906;6.786;2024-01-07T21:47:03;101358.28;;;-1.31;74.49
9129;BME280;4599;50.906;6.786;2024-01-07T21:51:06;101358.34;;;-1.37;75.18